Time;durP1;ratioP1;P1;durP2;ratioP2;P2;SDS_P1;SDS_P2;PMS_P1;PMS_P2;Temp;Humidity;BMP_temperature;BMP_pressure;BME280_temperature;BME280_humidity;BME280_pressure;Samples;Min_cycle;Max_cycle;Signal;HPM_P1;HPM_P2
2021/11/07 00:01:51;;;;;;;4.45;2.35;;;10.00;99.90;;;10.74;92.81;100752.53;4956417;29;20123;-82
2021/11/07 00:09:37;;;;;;;4.07;2.35;;;9.80;99.90;;;10.54;96.83;100737.59;4968025;28;20318;-83
2021/11/07 00:12:20;;;;;;;7.80;3.10;;;9.70;99.90;;;10.52;96.99;100742.72;4958883;28;20034;-83
2021/11/07 00:14:49;;;;;;;5.28;2.10;;;9.60;99.90;;;10.49;96.56;100726.69;4943502;28;20033;-83
2021/11/07 00:17:23;;;;;;;4.43;2.28;;;9.60;99.90;;;10.54;96.03;100738.41;4959135;28;20411;-84
2021/11/07 00:19:52;;;;;;;4.03;2.47;;;9.60;99.90;;;10.45;96.24;100734.16;4944574;28;20030;-81
2021/11/07 00:27:47;;;;;;;4.22;2.58;;;9.60;99.90;;;10.54;97.71;100740.38;4960760;28;20042;-82
2021/11/07 00:30:20;;;;;;;4.28;2.63;;;9.60;99.90;;;10.43;99.56;100734.50;4960495;28;20050;-82
2021/11/07 00:33:14;;;;;;;6.95;3.08;;;9.50;99.90;;;10.28;100.00;100729.66;4976734;28;20078;-81
2021/11/07 00:36:00;;;;;;;5.15;3.03;;;9.50;99.90;;;10.27;100.00;100736.44;4978027;28;20093;-80
2021/11/07 00:38:38;;;;;;;;;;;9.40;99.90;;;10.22;100.00;100736.66;4960779;28;20034;-80
2021/11/07 00:44:06;;;;;;;8.65;3.17;;;9.20;99.90;;;9.95;100.00;100724.25;4948433;28;20039;-81
2021/11/07 00:46:47;;;;;;;6.95;3.33;;;9.20;99.90;;;9.98;100.00;100729.16;4978908;28;20034;-84
2021/11/07 00:49:23;;;;;;;5.15;3.20;;;9.00;99.90;;;9.75;100.00;100722.44;4975870;28;20103;-83
2021/11/07 00:52:04;;;;;;;8.07;3.30;;;8.90;99.90;;;9.75;100.00;100725.25;4962051;28;20503;-82
2021/11/07 00:54:45;;;;;;;7.88;3.92;;;8.90;99.90;;;9.78;100.00;100712.56;4962753;28;20066;-81
2021/11/07 01:00:02;;;;;;;8.07;4.07;;;8.80;99.90;;;9.71;100.00;100704.78;4980121;28;20050;-83
2021/11/07 01:02:42;;;;;;;8.85;4.55;;;8.80;99.90;;;9.66;100.00;100705.03;4976396;28;20045;-83
2021/11/07 01:05:27;;;;;;;8.73;5.28;;;8.70;99.90;;;9.49;100.00;100700.50;4962471;28;20470;-84
2021/11/07 01:07:55;;;;;;;10.57;4.80;;;8.70;99.90;;;9.55;100.00;100701.09;4962350;28;20093;-79
2021/11/07 01:10:22;;;;;;;6.75;4.97;;;8.70;99.90;;;9.53;100.00;100698.63;4963169;28;20038;-82
2021/11/07 01:12:48;;;;;;;9.27;5.30;;;8.60;99.90;;;9.51;100.00;100689.00;4963707;28;20026;-81
2021/11/07 01:15:15;;;;;;;8.18;5.00;;;8.60;99.90;;;9.46;100.00;100686.47;4981471;28;20030;-84
2021/11/07 01:17:41;;;;;;;10.80;5.63;;;8.60;99.90;;;9.51;100.00;100686.22;4983799;28;20042;-82
2021/11/07 01:20:11;;;;;;;7.70;4.70;;;8.60;99.90;;;9.41;100.00;100679.13;4985794;28;20111;-82
2021/11/07 01:25:08;;;;;;;8.30;4.90;;;8.50;99.90;;;9.31;100.00;100676.03;4970942;28;20051;-83
2021/11/07 01:27:40;;;;;;;11.20;5.60;;;8.50;99.90;;;9.23;100.00;100679.72;4964751;28;20027;-81
2021/11/07 01:30:16;;;;;;;9.80;5.30;;;8.50;99.90;;;9.33;100.00;100673.69;4979516;28;20027;-81
2021/11/07 01:32:55;;;;;;;8.90;5.05;;;8.50;99.90;;;9.31;100.00;100679.59;4949396;28;20030;-81
2021/11/07 01:35:31;;;;;;;8.52;5.72;;;8.50;99.90;;;9.29;100.00;100664.38;4962267;28;20046;-81
2021/11/07 01:40:40;;;;;;;9.67;6.57;;;8.40;99.90;;;9.22;100.00;100659.41;4981575;28;20039;-79
2021/11/07 01:43:06;;;;;;;11.77;6.22;;;8.40;99.90;;;9.17;100.00;100650.47;4961437;28;20050;-83
2021/11/07 01:45:47;;;;;;;9.90;6.22;;;8.40;99.90;;;9.24;100.00;100642.34;4960025;28;20038;-86
2021/11/07 01:48:16;;;;;;;7.95;5.75;;;8.40;99.90;;;9.26;100.00;100638.03;4962285;28;20117;-83
2021/11/07 01:50:52;;;;;;;10.82;5.70;;;8.40;99.90;;;9.30;100.00;100638.97;4976239;28;20023;-84
2021/11/07 01:53:31;;;;;;;10.40;5.35;;;8.40;99.90;;;9.22;100.00;100653.00;4960080;28;20035;-81
2021/11/07 01:56:04;;;;;;;8.45;5.25;;;8.50;99.90;;;9.41;100.00;100639.28;4960631;28;20031;-80
2021/11/07 01:58:32;;;;;;;7.90;5.47;;;8.50;99.90;;;9.50;100.00;100628.84;4959417;28;20110;-82
2021/11/07 02:01:00;;;;;;;6.93;4.72;;;8.50;99.90;;;9.37;100.00;100630.84;4958367;28;20509;-81
2021/11/07 02:03:27;;;;;;;10.35;5.53;;;8.50;99.90;;;9.49;100.00;100616.06;4975868;28;20049;-80
2021/11/07 02:05:54;;;;;;;12.90;8.70;;;8.60;99.90;;;9.49;100.00;100607.69;4958873;28;20094;-81
2021/11/07 02:08:23;;;;;;;8.45;5.68;;;8.60;99.90;;;9.53;100.00;100603.84;4973062;28;20031;-83
2021/11/07 02:10:55;;;;;;;6.80;4.78;;;8.70;99.90;;;9.64;100.00;100606.13;4940062;28;20388;-81
2021/11/07 02:13:25;;;;;;;8.77;5.20;;;8.70;99.90;;;9.70;100.00;100607.50;4926806;29;20175;-82
2021/11/07 02:15:54;;;;;;;7.57;4.95;;;8.80;99.90;;;9.67;100.00;100595.09;4930451;29;20041;-83
2021/11/07 02:18:21;;;;;;;9.40;5.10;;;8.80;99.90;;;9.71;100.00;100604.38;4947277;29;20114;-84
2021/11/07 02:20:48;;;;;;;8.07;4.82;;;8.80;99.90;;;9.77;100.00;100591.81;4946643;28;20039;-82
2021/11/07 02:23:21;;;;;;;6.40;4.75;;;8.90;99.90;;;9.79;100.00;100578.31;4943672;28;20086;-83
2021/11/07 02:25:53;;;;;;;8.45;4.90;;;8.90;99.90;;;9.80;100.00;100570.75;4929782;29;20035;-84
2021/11/07 02:28:44;;;;;;;7.90;4.80;;;8.80;99.90;;;9.74;100.00;100570.19;4944127;29;20058;-82
2021/11/07 02:31:18;;;;;;;6.43;4.65;;;8.90;99.90;;;9.87;100.00;100569.00;4940529;29;20023;-83
2021/11/07 02:33:46;;;;;;;8.30;4.43;;;8.90;99.90;;;9.87;100.00;100563.41;4929077;29;20039;-83
2021/11/07 02:36:18;;;;;;;6.70;4.50;;;8.90;99.90;;;9.87;100.00;100563.41;4944265;28;20066;-81
2021/11/07 02:38:48;;;;;;;7.45;4.20;;;9.00;99.90;;;9.79;100.00;100555.22;4928623;29;20050;-81
2021/11/07 02:41:15;;;;;;;7.47;4.82;;;8.90;99.90;;;9.85;100.00;100551.81;4928338;29;20082;-82
2021/11/07 02:43:51;;;;;;;6.35;4.40;;;8.90;99.90;;;9.82;100.00;100549.72;4962276;29;20039;-80
2021/11/07 02:46:18;;;;;;;7.18;4.75;;;8.90;99.90;;;9.91;100.00;100552.34;4965938;29;20514;-80
2021/11/07 02:48:57;;;;;;;8.80;5.88;;;8.90;99.90;;;9.80;100.00;100548.44;4950223;28;20034;-80
2021/11/07 02:51:32;;;;;;;7.68;5.07;;;9.00;99.90;;;9.92;100.00;100551.97;4951043;28;20031;-81
2021/11/07 02:54:07;;;;;;;7.40;4.80;;;9.10;99.90;;;9.86;100.00;100539.47;4948965;29;20024;-80
2021/11/07 02:56:34;;;;;;;8.07;5.40;;;9.10;99.90;;;9.86;100.00;100533.06;4951051;29;20038;-80
2021/11/07 02:59:03;;;;;;;6.07;4.72;;;9.00;99.90;;;9.86;100.00;100527.50;4946680;29;20071;-80
2021/11/07 03:01:29;;;;;;;7.28;4.85;;;9.00;99.90;;;9.92;100.00;100520.50;4949880;28;20062;-80
2021/11/07 03:04:07;;;;;;;6.43;4.47;;;9.00;99.90;;;9.88;100.00;100531.56;4949250;29;20031;-82
2021/11/07 03:06:36;;;;;;;6.88;4.72;;;9.00;99.90;;;9.93;100.00;100533.28;4937457;29;20043;-81
2021/11/07 03:09:12;;;;;;;7.40;4.60;;;9.00;99.90;;;9.86;100.00;100538.66;4961312;28;20090;-79
2021/11/07 03:11:42;;;;;;;;;;;9.10;99.90;;;10.05;100.00;100522.03;4973299;28;20042;-83
2021/11/07 03:14:21;;;;;;;6.35;4.70;;;9.00;99.90;;;9.89;100.00;100510.84;4991125;28;19936;-81
2021/11/07 03:16:48;;;;;;;7.82;4.38;;;9.00;99.90;;;9.95;100.00;100509.41;4975058;28;20022;-79
2021/11/07 03:19:16;;;;;;;7.22;4.57;;;9.00;99.90;;;9.92;100.00;100526.88;4970185;28;20035;-81
2021/11/07 03:21:44;;;;;;;9.98;4.97;;;9.00;99.90;;;9.93;100.00;100536.06;5006212;23;20092;-83
2021/11/07 03:24:14;;;;;;;8.20;4.70;;;9.00;99.90;;;9.97;100.00;100531.41;5028887;28;20037;-86
2021/11/07 03:26:42;;;;;;;8.02;4.57;;;9.00;99.90;;;9.93;100.00;100527.69;5034221;28;20030;-85
2021/11/07 03:29:10;;;;;;;7.68;5.20;;;9.00;99.90;;;9.97;100.00;100511.88;5034062;28;20109;-85
2021/11/07 03:34:17;;;;;;;7.85;5.70;;;9.10;99.90;;;9.92;100.00;100523.31;5035260;28;20058;-86
2021/11/07 03:36:45;;;;;;;7.03;4.63;;;9.10;99.90;;;9.99;100.00;100520.69;5033292;28;20493;-87
2021/11/07 03:39:15;;;;;;;11.10;5.88;;;9.00;99.90;;;9.95;100.00;100506.63;5033968;28;20033;-81
2021/11/07 03:41:44;;;;;;;6.47;4.93;;;9.10;99.90;;;10.00;100.00;100516.72;5032969;28;20132;-86
2021/11/07 03:44:13;;;;;;;12.52;5.55;;;9.10;99.90;;;10.00;100.00;100517.53;5033335;28;20033;-85
2021/11/07 03:46:41;;;;;;;9.30;5.95;;;9.10;99.90;;;10.04;100.00;100495.31;5033487;28;20030;-86
2021/11/07 03:49:10;;;;;;;6.78;5.28;;;9.10;99.90;;;10.14;100.00;100489.25;5033838;28;20053;-83
2021/11/07 03:51:37;;;;;;;8.27;6.15;;;9.20;99.90;;;10.18;100.00;100481.75;5033980;28;20032;-83
2021/11/07 03:54:07;;;;;;;12.98;6.65;;;9.20;99.90;;;10.15;100.00;100476.91;5033806;28;20025;-88
2021/11/07 03:56:34;;;;;;;8.88;6.15;;;9.20;99.90;;;10.20;100.00;100471.06;5035150;28;20038;-85
2021/11/07 03:59:01;;;;;;;8.15;5.95;;;9.20;99.90;;;10.25;100.00;100473.56;5053739;28;20022;-79
2021/11/07 04:01:28;;;;;;;7.78;6.80;;;9.20;99.90;;;10.19;100.00;100469.44;5055244;28;20048;-81
2021/11/07 04:03:54;;;;;;;11.07;7.25;;;9.30;99.90;;;10.20;100.00;100471.06;5055310;28;20100;-78
2021/11/07 04:06:20;;;;;;;11.32;7.07;;;9.30;99.90;;;10.20;100.00;100471.06;5055442;28;20029;-79
2021/11/07 04:08:46;;;;;;;13.88;6.70;;;9.20;99.90;;;10.17;100.00;100471.78;5056447;28;20067;-75
2021/11/07 04:11:13;;;;;;;8.00;6.65;;;9.20;99.90;;;10.15;100.00;100462.13;5056387;28;20029;-77
2021/11/07 04:13:40;;;;;;;9.82;7.28;;;9.20;99.90;;;10.19;100.00;100452.69;5055738;28;20051;-78
2021/11/07 04:16:10;;;;;;;10.52;7.00;;;9.30;99.90;;;10.26;100.00;100461.25;5055634;28;20021;-79
2021/11/07 04:18:39;;;;;;;9.23;7.88;;;9.30;99.90;;;10.31;100.00;100451.78;5056436;28;20055;-77
2021/11/07 04:21:05;;;;;;;10.88;7.70;;;9.30;99.90;;;10.29;100.00;100452.16;5055359;28;20026;-86
2021/11/07 04:23:32;;;;;;;9.07;7.78;;;9.30;99.90;;;10.29;100.00;100446.56;5047538;28;20088;-87
2021/11/07 04:25:58;;;;;;;10.07;8.02;;;9.30;99.90;;;10.34;100.00;100440.69;5043306;28;20572;-88
2021/11/07 04:28:26;;;;;;;11.52;7.95;;;9.30;99.90;;;10.36;100.00;100438.38;5041382;28;20037;-88
2021/11/07 04:30:53;;;;;;;11.93;8.27;;;9.30;99.90;;;10.35;100.00;100436.75;5041596;28;20033;-82
2021/11/07 04:33:20;;;;;;;11.73;8.48;;;9.40;99.90;;;10.23;100.00;100422.06;5052994;28;20030;-85
2021/11/07 04:35:46;;;;;;;11.07;8.00;;;9.40;99.90;;;10.29;100.00;100435.41;5041540;28;20091;-90
2021/11/07 04:38:12;;;;;;;9.60;8.02;;;9.40;99.90;;;10.31;100.00;100435.03;5042202;28;20029;-85
2021/11/07 04:40:39;;;;;;;10.43;8.70;;;9.40;99.90;;;10.37;100.00;100436.41;5044228;28;20030;-85
2021/11/07 04:43:05;;;;;;;9.38;8.38;;;9.40;99.90;;;10.29;100.00;100427.03;5045810;28;20060;-87
2021/11/07 04:45:31;;;;;;;10.70;9.57;;;9.40;99.90;;;10.30;100.00;100413.88;5047103;28;20067;-88
2021/11/07 04:47:57;;;;;;;11.30;9.00;;;9.40;99.90;;;10.43;100.00;100426.56;5060528;28;20025;-88
2021/11/07 04:50:23;;;;;;;11.85;8.73;;;9.40;99.90;;;10.39;100.00;100414.50;5041489;28;20026;-86
2021/11/07 04:52:49;;;;;;;11.52;9.27;;;9.40;99.90;;;10.43;100.00;100412.59;5038631;28;20041;-85
2021/11/07 04:55:16;;;;;;;10.52;9.15;;;9.40;99.90;;;10.35;100.00;100425.56;5040018;28;20034;-88
2021/11/07 04:57:43;;;;;;;10.95;9.50;;;9.40;99.90;;;10.38;100.00;100421.25;5041348;28;20033;-84
2021/11/07 05:00:22;;;;;;;11.65;9.77;;;9.50;99.90;;;10.37;100.00;100411.25;5039409;28;20101;-87
2021/11/07 05:02:50;;;;;;;12.20;10.25;;;9.40;99.90;;;10.34;100.00;100403.63;5038726;28;20481;-86
2021/11/07 05:05:19;;;;;;;12.40;9.20;;;9.50;99.90;;;10.37;100.00;100403.69;5039453;28;20037;-85
2021/11/07 05:07:45;;;;;;;14.23;9.48;;;9.40;99.90;;;10.40;100.00;100402.94;5041576;28;20048;-86
2021/11/07 05:10:12;;;;;;;13.13;10.50;;;9.50;99.90;;;10.35;100.00;100396.84;5036403;28;20441;-88
2021/11/07 05:12:38;;;;;;;14.00;10.77;;;9.40;99.90;;;10.37;100.00;100400.09;5018751;28;20030;-83
2021/11/07 05:15:06;;;;;;;12.63;10.35;;;9.40;99.90;;;10.25;100.00;100389.84;5019352;28;20034;-85
2021/11/07 05:17:32;;;;;;;14.38;11.10;;;9.40;99.90;;;10.27;100.00;100392.28;5035936;28;20037;-88
2021/11/07 05:19:59;;;;;;;13.13;10.77;;;9.40;99.90;;;10.32;100.00;100395.59;5020168;28;20402;-83
2021/11/07 05:22:25;;;;;;;14.77;10.57;;;9.40;99.90;;;10.38;100.00;100394.13;5018734;28;20461;-86
2021/11/07 05:24:51;;;;;;;13.55;11.48;;;9.40;99.90;;;10.40;100.00;100394.56;5019628;28;20478;-85
2021/11/07 05:27:17;;;;;;;16.08;11.48;;;9.40;99.90;;;10.36;100.00;100401.25;5020166;28;20061;-86
2021/11/07 05:29:43;;;;;;;17.13;11.02;;;9.40;99.90;;;10.38;100.00;100390.53;5019697;28;20095;-84
2021/11/07 05:32:09;;;;;;;12.85;10.27;;;9.40;99.90;;;10.39;100.00;100387.38;5020355;28;20057;-84
2021/11/07 05:34:36;;;;;;;14.68;11.07;;;9.40;99.90;;;10.39;100.00;100383.78;5017783;28;20040;-87
2021/11/07 05:37:03;;;;;;;15.07;10.75;;;9.40;99.90;;;10.47;100.00;100393.94;5018348;28;20492;-87
2021/11/07 05:39:29;;;;;;;15.25;10.13;;;9.40;99.90;;;10.37;100.00;100386.91;5016994;28;20429;-85
2021/11/07 05:41:55;;;;;;;13.25;9.13;;;9.40;99.90;;;10.43;100.00;100384.69;5016936;28;20176;-87
2021/11/07 05:44:21;;;;;;;16.95;10.13;;;9.40;99.90;;;10.39;100.00;100378.19;5016461;28;20064;-88
2021/11/07 05:46:47;;;;;;;14.98;10.65;;;9.40;99.90;;;10.37;100.00;100358.22;5018259;28;20156;-87
2021/11/07 05:49:14;;;;;;;16.58;9.95;;;9.40;99.90;;;10.42;100.00;100367.13;5017327;28;20620;-82
2021/11/07 05:51:39;;;;;;;13.80;9.93;;;9.40;99.90;;;10.33;100.00;100362.91;5017006;28;20141;-87
2021/11/07 05:54:06;;;;;;;14.45;9.27;;;9.40;99.90;;;10.34;100.00;100376.47;5018629;28;20070;-84
2021/11/07 05:56:33;;;;;;;10.45;8.52;;;9.40;99.90;;;10.42;100.00;100369.09;5017165;28;20030;-88
2021/11/07 05:59:00;;;;;;;11.10;7.78;;;9.40;99.90;;;10.41;100.00;100362.69;5017564;28;20033;-87
2021/11/07 06:01:26;;;;;;;10.13;7.47;;;9.50;99.90;;;10.50;100.00;100380.06;5016573;28;20030;-82
2021/11/07 06:03:52;;;;;;;10.07;7.93;;;9.50;99.90;;;10.44;100.00;100372.31;5017700;28;20056;-84
2021/11/07 06:06:19;;;;;;;10.00;6.55;;;9.50;99.90;;;10.42;100.00;100360.72;5016640;28;20018;-85
2021/11/07 06:08:45;;;;;;;8.68;6.68;;;9.50;99.90;;;10.45;100.00;100368.38;5024025;28;20025;-89
2021/11/07 06:11:11;;;;;;;9.75;7.35;;;9.50;99.90;;;10.44;100.00;100364.75;5036540;28;20083;-88
2021/11/07 06:13:37;;;;;;;9.90;7.32;;;9.50;99.90;;;10.49;100.00;100369.25;5036067;28;20362;-86
2021/11/07 06:16:04;;;;;;;9.07;6.47;;;9.50;99.90;;;10.47;100.00;100377.19;5038073;28;20021;-86
2021/11/07 06:18:31;;;;;;;10.32;6.25;;;9.50;99.90;;;10.53;100.00;100375.75;5036289;28;20029;-85
2021/11/07 06:20:58;;;;;;;8.27;6.47;;;9.50;99.90;;;10.57;100.00;100385.81;5035837;28;20033;-87
2021/11/07 06:23:25;;;;;;;10.20;6.88;;;9.50;99.90;;;10.38;100.00;100388.56;5036263;28;20115;-85
2021/11/07 06:25:52;;;;;;;8.57;6.60;;;9.50;99.90;;;10.41;100.00;100387.00;5036714;28;20022;-87
2021/11/07 06:28:20;;;;;;;7.80;6.13;;;9.50;99.90;;;10.42;100.00;100391.44;5037854;28;20148;-86
2021/11/07 06:30:48;;;;;;;7.25;5.95;;;9.50;99.90;;;10.48;100.00;100393.56;5037654;28;20025;-89
2021/11/07 06:33:16;;;;;;;8.13;6.10;;;9.50;99.90;;;10.46;100.00;100390.34;5036816;28;20112;-85
2021/11/07 06:35:43;;;;;;;9.18;6.80;;;9.50;99.90;;;10.39;100.00;100395.75;5036314;28;20033;-87
2021/11/07 06:38:09;;;;;;;9.80;7.75;;;9.50;99.90;;;10.51;100.00;100417.16;5037061;28;20026;-82
2021/11/07 06:40:35;;;;;;;14.13;7.88;;;9.50;99.90;;;10.52;100.00;100413.22;5036517;28;20060;-85
2021/11/07 06:43:03;;;;;;;12.68;8.80;;;9.50;99.90;;;10.54;100.00;100419.22;5036093;28;20026;-83
2021/11/07 06:45:29;;;;;;;15.65;11.73;;;9.50;99.90;;;10.58;100.00;100426.53;5036296;28;20421;-86
2021/11/07 06:47:55;;;;;;;15.93;11.70;;;9.60;99.90;;;10.58;100.00;100425.72;5037025;28;20056;-85
2021/11/07 06:50:21;;;;;;;16.00;11.63;;;9.60;99.90;;;10.63;100.00;100430.22;5035115;28;20021;-86
2021/11/07 06:52:47;;;;;;;16.95;12.73;;;9.50;99.90;;;10.67;100.00;100436.69;5035599;28;20029;-85
2021/11/07 06:55:14;;;;;;;14.80;11.32;;;9.60;99.90;;;10.67;100.00;100433.88;5036914;28;20038;-84
2021/11/07 06:57:42;;;;;;;19.00;12.80;;;9.60;99.90;;;10.64;100.00;100429.84;5034963;28;20458;-88
2021/11/07 07:00:19;;;;;;;22.33;14.13;;;9.60;99.90;;;10.58;100.00;100425.72;5040502;28;20026;-88
2021/11/07 07:02:46;;;;;;;19.27;13.63;;;9.60;99.90;;;10.71;100.00;100430.00;5043678;28;20030;-87
2021/11/07 07:05:16;;;;;;;18.15;12.65;;;9.60;99.90;;;10.63;100.00;100433.81;5036612;28;20032;-85
2021/11/07 07:07:46;;;;;;;22.40;13.35;;;9.60;99.90;;;10.59;100.00;100430.91;5038036;28;20500;-89
2021/11/07 07:10:21;;;;;;;18.13;13.00;;;9.60;99.90;;;10.62;100.00;100423.00;5018680;28;20068;-85
2021/11/07 07:12:57;;;;;;;14.32;10.98;;;9.60;99.90;;;10.63;100.00;100428.22;5014745;28;20054;-88
2021/11/07 07:15:28;;;;;;;17.17;11.95;;;9.60;99.90;;;10.70;100.00;100413.59;5030388;28;20501;-87
2021/11/07 07:18:07;;;;;;;17.65;12.15;;;9.60;99.90;;;10.68;100.00;100427.13;5015537;28;20449;-84
2021/11/07 07:35:52;;;;;;;15.93;10.77;;;9.70;99.90;;;10.77;100.00;100436.94;5025611;28;20041;-86
2021/11/07 07:38:19;;;;;;;12.75;9.30;;;9.70;99.90;;;10.85;100.00;100437.91;5015467;28;20030;-88
2021/11/07 07:40:45;;;;;;;14.40;9.38;;;9.80;99.90;;;10.86;100.00;100442.31;5017020;28;20049;-84
2021/11/07 07:43:11;;;;;;;18.52;10.77;;;9.80;99.90;;;10.89;100.00;100435.97;5016309;28;20486;-83
2021/11/07 07:45:38;;;;;;;15.85;10.38;;;9.80;99.90;;;10.91;100.00;100434.47;5015478;28;20032;-86
2021/11/07 07:48:05;;;;;;;17.25;10.63;;;9.80;99.90;;;10.91;100.00;100433.66;5016182;28;20030;-82
2021/11/07 07:50:32;;;;;;;11.32;8.02;;;9.80;99.90;;;10.97;100.00;100432.19;5017414;28;20025;-84
2021/11/07 07:52:59;;;;;;;15.45;9.68;;;9.80;99.90;;;10.99;100.00;100427.03;5017509;28;20177;-83
2021/11/07 07:55:25;;;;;;;20.42;9.35;;;9.80;99.90;;;11.02;100.00;100429.09;5020042;28;20053;-86
2021/11/07 07:57:51;;;;;;;12.95;8.40;;;9.80;99.90;;;10.95;100.00;100431.72;5019603;28;20033;-84
2021/11/07 08:00:21;;;;;;;16.00;9.02;;;9.90;99.90;;;10.96;100.00;100422.19;5018827;28;20033;-84
2021/11/07 08:02:47;;;;;;;15.70;9.02;;;9.80;99.90;;;11.00;100.00;100423.06;5020273;28;20040;-84
2021/11/07 08:05:14;;;;;;;15.38;8.23;;;9.90;99.90;;;11.02;100.00;100427.13;5020229;28;20030;-86
2021/11/07 08:07:43;;;;;;;16.42;8.95;;;9.90;99.90;;;10.94;100.00;100414.19;5022608;28;20030;-84
2021/11/07 08:10:12;;;;;;;21.48;9.15;;;9.90;99.90;;;11.00;100.00;100411.91;5039582;28;20029;-84
2021/11/07 08:12:39;;;;;;;13.02;8.82;;;9.90;99.90;;;11.03;100.00;100419.53;5040427;28;20095;-84
2021/11/07 08:15:11;;;;;;;12.95;8.73;;;9.90;99.90;;;10.97;100.00;100410.66;5041073;28;20040;-85
2021/11/07 08:17:37;;;;;;;15.88;10.18;;;9.90;99.90;;;10.96;100.00;100423.00;5044595;28;20117;-84
2021/11/07 08:20:08;;;;;;;11.60;7.95;;;9.90;99.90;;;11.03;100.00;100423.16;5043628;28;20030;-86
2021/11/07 08:22:37;;;;;;;18.08;9.90;;;9.90;99.90;;;11.03;100.00;100419.53;5039144;28;20175;-86
2021/11/07 08:25:11;;;;;;;13.25;10.07;;;9.90;99.90;;;11.01;100.00;100427.50;5039402;28;20029;-85
2021/11/07 08:27:41;;;;;;;15.70;10.45;;;9.90;99.90;;;11.00;100.00;100437.03;5040610;28;20044;-86
2021/11/07 08:30:12;;;;;;;18.25;11.02;;;9.80;99.90;;;10.95;100.00;100429.75;5040877;28;20021;-87
2021/11/07 08:32:38;;;;;;;20.58;10.75;;;9.90;99.90;;;11.12;100.00;100425.72;5040028;28;20370;-85
2021/11/07 08:35:05;;;;;;;14.55;9.52;;;10.00;99.90;;;11.11;100.00;100435.28;5039311;28;20067;-83
2021/11/07 08:37:36;;;;;;;21.77;13.15;;;10.00;99.90;;;11.25;100.00;100446.75;5039433;28;20022;-83
2021/11/07 08:40:08;;;;;;;26.23;14.45;;;10.00;99.90;;;11.24;100.00;100447.94;5039543;28;20052;-84
2021/11/07 08:42:46;;;;;;;19.85;13.38;;;10.10;99.90;;;11.19;100.00;100453.81;5037720;28;20489;-84
2021/11/07 09:09:38;;;;;;;21.20;12.18;;;10.40;99.90;;;11.63;100.00;100457.13;5037258;28;20045;-84
2021/11/07 09:12:05;;;;;;;20.67;11.57;;;10.50;99.90;;;11.66;100.00;100456.38;5037588;28;20489;-85
2021/11/07 09:14:36;;;;;;;19.88;11.73;;;10.60;99.90;;;11.72;100.00;100456.94;5037395;28;20026;-88
2021/11/07 09:17:08;;;;;;;21.35;11.60;;;10.60;99.90;;;11.65;100.00;100460.38;5049995;28;20030;-86
2021/11/07 09:19:38;;;;;;;20.30;11.18;;;10.60;99.90;;;11.69;100.00;100457.66;5045197;28;20033;-84
2021/11/07 09:22:18;;;;;;;25.83;10.43;;;10.60;99.90;;;11.54;100.00;100450.94;5038186;28;20048;-84
2021/11/07 09:25:06;;;;;;;23.63;9.63;;;10.50;99.90;;;11.57;100.00;100456.63;5037387;28;20580;-87
2021/11/07 09:27:38;;;;;;;22.10;10.48;;;10.50;99.90;;;11.60;100.00;100449.47;5039298;28;20025;-82
2021/11/07 09:30:12;;;;;;;24.25;11.38;;;10.50;99.90;;;11.75;100.00;100467.38;5037403;28;20482;-86
2021/11/07 09:32:48;;;;;;;25.80;10.15;;;10.50;99.90;;;11.81;100.00;100461.13;5036861;28;20034;-80
2021/11/07 09:35:31;;;;;;;27.02;10.95;;;10.60;99.90;;;11.94;100.00;100458.97;5044377;23;20137;-77
2021/11/07 09:38:04;;;;;;;26.02;10.45;;;10.80;99.90;;;12.30;100.00;100466.78;4979988;28;20417;-77
2021/11/07 09:40:33;;;;;;;21.85;9.20;;;11.10;99.90;;;12.66;98.67;100469.00;5011245;28;20053;-78
2021/11/07 09:45:52;;;;;;;22.27;6.78;;;11.80;99.90;;;13.28;95.58;100477.13;4996582;28;20092;-80
2021/11/07 09:48:28;;;;;;;16.23;6.05;;;12.10;99.90;;;13.58;89.85;100484.31;4975741;28;20037;-81
2021/11/07 09:50:56;;;;;;;22.40;5.03;;;12.40;99.90;;;13.53;89.22;100478.25;4997410;28;20058;-81
2021/11/07 09:53:23;;;;;;;17.38;5.10;;;12.40;99.90;;;13.58;88.79;100487.13;4995657;28;20026;-78
2021/11/07 09:55:52;;;;;;;14.15;4.68;;;12.50;99.90;;;13.90;86.83;100484.69;4983380;28;20073;-82
2021/11/07 09:58:19;;;;;;;19.38;4.68;;;12.70;99.90;;;13.44;83.11;100480.53;4986241;28;20034;-82
2021/11/07 10:00:55;;;;;;;20.42;4.55;;;12.40;99.90;;;12.93;85.62;100486.63;4997129;28;20038;-80
2021/11/07 10:03:24;;;;;;;14.70;4.65;;;12.00;99.90;;;12.86;88.89;100494.09;4980958;28;20089;-81
2021/11/07 10:05:53;;;;;;;18.80;4.18;;;11.80;99.90;;;12.84;88.52;100488.09;5002165;28;20090;-85
2021/11/07 10:08:20;;;;;;;17.67;4.25;;;11.70;99.90;;;12.89;87.56;100477.34;5002658;28;20026;-81
2021/11/07 10:11:03;;;;;;;14.63;4.22;;;11.70;99.90;;;13.01;84.85;100479.09;4995482;28;20030;-81
2021/11/07 10:13:32;;;;;;;13.48;3.65;;;11.90;99.90;;;13.35;83.47;100475.22;4994958;28;20022;-79
2021/11/07 10:16:10;;;;;;;16.75;3.60;;;12.20;99.90;;;13.63;81.98;100474.75;4995609;28;20105;-80
2021/11/07 10:18:52;;;;;;;17.55;3.60;;;12.50;99.90;;;13.89;80.33;100471.84;4993845;28;20030;-79
2021/11/07 10:21:26;;;;;;;16.98;4.45;;;12.70;99.90;;;13.59;80.42;100477.53;4993583;28;20068;-83
2021/11/07 10:24:19;;;;;;;26.13;5.17;;;12.50;99.90;;;13.40;80.77;100480.50;4994900;28;20049;-86
2021/11/07 10:26:57;;;;;;;16.60;3.40;;;12.30;99.90;;;13.51;82.85;100481.44;5008863;28;20286;-84
2021/11/07 10:29:38;;;;;;;20.17;4.30;;;12.30;99.90;;;13.82;80.62;100485.81;5007261;28;20031;-82
2021/11/07 10:32:18;;;;;;;17.55;3.95;;;12.60;99.90;;;13.95;79.11;100478.72;4999635;28;20030;-83
2021/11/07 10:44:39;;;;;;;12.18;3.63;;;12.80;99.90;;;13.99;73.73;100479.59;5092379;28;20051;-80
2021/11/07 10:53:23;;;;;;;16.13;3.15;;;13.30;99.90;;;14.97;73.68;100464.78;5084529;28;20461;-83
2021/11/07 10:56:02;;;;;;;15.90;3.33;;;13.50;99.90;;;14.89;74.06;100448.25;5091483;28;20403;-81
2021/11/07 10:58:37;;;;;;;14.98;3.30;;;13.70;99.90;;;15.28;68.87;100468.97;5089885;28;20028;-84
2021/11/07 11:01:24;;;;;;;15.98;3.60;;;13.90;99.90;;;15.07;70.71;100451.97;5038814;28;20275;-82
2021/11/07 11:04:00;;;;;;;13.38;3.50;;;13.80;99.90;;;15.23;69.45;100449.66;5040506;28;20146;-84
2021/11/07 11:06:28;;;;;;;14.40;3.13;;;13.90;99.90;;;15.13;70.27;100448.38;5072066;28;20080;-81
2021/11/07 11:09:34;;;;;;;19.77;3.55;;;14.00;99.90;;;15.28;67.65;100444.44;5100236;28;20028;-84
2021/11/07 11:12:09;;;;;;;18.65;3.72;;;14.00;99.90;;;15.27;69.53;100440.03;5111075;28;20166;-81
2021/11/07 11:14:39;;;;;;;17.90;3.65;;;14.10;99.90;;;15.40;67.26;100434.88;5094421;28;20032;-83
2021/11/07 11:17:26;;;;;;;14.73;2.95;;;14.20;99.90;;;15.85;68.42;100441.06;5113014;28;20028;-82
2021/11/07 11:20:18;;;;;;;16.92;3.28;;;14.50;99.90;;;15.83;64.81;100439.44;5112307;28;20020;-84
2021/11/07 11:23:27;;;;;;;14.27;3.53;;;14.50;99.90;;;15.54;64.52;100440.56;5050430;28;20032;-83
2021/11/07 11:25:46;;;;;;;14.65;3.63;;;14.40;99.90;;;15.60;66.61;100435.38;5104202;28;20402;-82
2021/11/07 11:28:28;;;;;;;15.73;3.55;;;14.30;99.90;;;14.64;66.90;100422.81;5094333;28;20028;-82
2021/11/07 11:31:16;;;;;;;15.52;3.80;;;13.60;99.90;;;14.34;70.50;100433.38;5113466;28;20016;-82
2021/11/07 11:33:47;;;;;;;15.32;3.08;;;13.30;99.90;;;14.40;72.01;100431.81;5112641;28;20024;-80
2021/11/07 11:36:53;;;;;;;19.20;4.82;;;13.20;99.90;;;14.77;68.51;100426.88;5094271;28;20028;-82
2021/11/07 11:39:14;;;;;;;14.27;3.13;;;13.40;99.90;;;14.95;68.56;100425.00;5108989;28;20446;-80
2021/11/07 11:41:46;;;;;;;19.20;3.97;;;13.70;99.90;;;15.06;65.24;100437.09;5094292;28;20098;-82
2021/11/07 11:44:15;;;;;;;19.80;4.00;;;13.80;99.90;;;15.05;64.96;100435.50;5060690;28;20127;-80
2021/11/07 11:47:32;;;;;;;18.48;3.28;;;13.90;99.90;;;15.47;65.10;100428.47;5084012;28;20032;-87